Kirkwood, CA (95646)

12:39 AM PDT on November 01, 2014 (GMT -0700)
Lake Tahoe | Change Station
CLOSE
Current Station
Airport
Location: South Lake Tahoe,
Elevation: 6263 ft
Nearby Weather Stations
Active Advisory: Winter Storm Warning

Elev 6263 ft 38.90 °N, 120.00 °W | Updated 46 minutes ago

Snow
Snow
38 °F
Feels Like 38 °F
N
0
Wind Variable Wind from North

Today
High -- | Low -- °F
--% Chance of Precip.
Yesterday
High -- | Low -- °F
Precip. -- in
7:27 AM 5:59 PM
Waxing Gibbous, 64% visible
Pressure 29.58 in
Visibility 10.0 miles
Clouds Few 2600 ft
Overcast 3200 ft
Dew Point 33 °F
Humidity 83%
Rainfall 0.02 in
Snow Depth Not available.
UV 0 out of 12
Pollen 1.50 out of 12
Air Quality Not available.
Flu Activity Not available.
METAR KTVL 010653Z AUTO 00000KT 10SM -RA FEW026 OVC032 03/01 A2969 RMK AO2 SLP017 P0000 T00330006

More Conditions Fewer Conditions

Pressure 29.58 in
Visibility 10.0 miles
Clouds Few 2600 ft
Overcast 3200 ft
Dew Point 33 °F
Humidity 83%
Rainfall 0.02 in
Snow Depth Not available.
UV 0 out of 12
Pollen 1.50 out of 12
Air Quality Not available.
Flu Activity Not available.
METAR KTVL 010653Z AUTO 00000KT 10SM -RA FEW026 OVC032 03/01 A2969 RMK AO2 SLP017 P0000 T00330006

More Conditions Fewer Conditions

10-Day Weather Forecast

Almanac

Astronomy

Nov. 01, 2014 Rise Set
Actual Time
Civil Twilight
Nautical Twilight
Astronomical Twilight
Moon
Length of Visible Light
Length of Day
Tomorrow will be .
, % of the Moon is Illuminated

Today's Extremes

State Highs State Lows

Community

WunderPhotos

Upload Photos

1,766,866 photos uploaded!

WunderBlogs® & News

Nearby

Air Quality

  Air Quality AQ Index Pollutant
Not available.

Snow Depth

Station Depth Elevation

Earthquake Activity

City Distance Mag. Time & Date
Minimum magnitude displayed is 2.5.

Coastal Water Temperatures

Place Temperature

Nearby Weather Stations